sensor_id;sensor_type;location;lat;lon;timestamp;P1;durP1;ratioP1;P2;durP2;ratioP2
75680;SDS011;64294;49.176;16.626;2023-04-30T00:00:46;12.27;;;8.63;;
75680;SDS011;64294;49.176;16.626;2023-04-30T00:03:11;13.43;;;9.20;;
75680;SDS011;64294;49.176;16.626;2023-04-30T00:05:37;13.02;;;8.95;;
75680;SDS011;64294;49.176;16.626;2023-04-30T00:08:03;14.35;;;8.90;;
75680;SDS011;64294;49.176;16.626;2023-04-30T00:10:29;14.93;;;9.30;;
75680;SDS011;64294;49.176;16.626;2023-04-30T00:12:54;15.45;;;8.93;;
75680;SDS011;64294;49.176;16.626;2023-04-30T00:15:21;13.75;;;8.75;;
75680;SDS011;64294;49.176;16.626;2023-04-30T00:17:46;15.40;;;9.50;;
75680;SDS011;64294;49.176;16.626;2023-04-30T00:20:12;15.98;;;9.20;;
75680;SDS011;64294;49.176;16.626;2023-04-30T00:22:37;12.45;;;9.00;;
75680;SDS011;64294;49.176;16.626;2023-04-30T00:25:03;15.10;;;9.30;;
75680;SDS011;64294;49.176;16.626;2023-04-30T00:27:29;14.63;;;9.48;;
75680;SDS011;64294;49.176;16.626;2023-04-30T00:29:55;16.08;;;10.02;;
75680;SDS011;64294;49.176;16.626;2023-04-30T00:32:21;14.43;;;9.55;;
75680;SDS011;64294;49.176;16.626;2023-04-30T00:34:46;14.55;;;9.77;;
75680;SDS011;64294;49.176;16.626;2023-04-30T00:37:12;15.77;;;9.73;;
75680;SDS011;64294;49.176;16.626;2023-04-30T00:39:37;16.30;;;9.60;;
75680;SDS011;64294;49.176;16.626;2023-04-30T00:42:02;16.50;;;10.23;;
75680;SDS011;64294;49.176;16.626;2023-04-30T00:44:29;16.17;;;10.40;;
75680;SDS011;64294;49.176;16.626;2023-04-30T00:46:54;14.93;;;9.05;;
75680;SDS011;64294;49.176;16.626;2023-04-30T00:49:19;18.70;;;9.75;;
75680;SDS011;64294;49.176;16.626;2023-04-30T00:51:45;15.70;;;10.40;;
75680;SDS011;64294;49.176;16.626;2023-04-30T00:54:11;15.95;;;9.90;;
75680;SDS011;64294;49.176;16.626;2023-04-30T00:56:37;15.88;;;10.05;;
75680;SDS011;64294;49.176;16.626;2023-04-30T00:59:02;16.48;;;10.52;;
75680;SDS011;64294;49.176;16.626;2023-04-30T01:01:28;15.85;;;10.30;;
75680;SDS011;64294;49.176;16.626;2023-04-30T01:03:53;14.55;;;10.13;;
75680;SDS011;64294;49.176;16.626;2023-04-30T01:06:19;17.10;;;10.60;;
75680;SDS011;64294;49.176;16.626;2023-04-30T01:08:45;15.63;;;9.70;;
75680;SDS011;64294;49.176;16.626;2023-04-30T01:11:15;19.90;;;10.85;;
75680;SDS011;64294;49.176;16.626;2023-04-30T01:13:52;18.58;;;11.38;;
75680;SDS011;64294;49.176;16.626;2023-04-30T01:16:26;17.85;;;10.85;;
75680;SDS011;64294;49.176;16.626;2023-04-30T01:19:37;16.27;;;10.40;;
75680;SDS011;64294;49.176;16.626;2023-04-30T01:21:59;16.63;;;10.88;;
75680;SDS011;64294;49.176;16.626;2023-04-30T01:30:06;17.60;;;11.00;;
75680;SDS011;64294;49.176;16.626;2023-04-30T01:37:43;18.67;;;11.77;;
75680;SDS011;64294;49.176;16.626;2023-04-30T01:40:30;17.85;;;11.48;;
75680;SDS011;64294;49.176;16.626;2023-04-30T01:46:27;16.75;;;11.68;;
75680;SDS011;64294;49.176;16.626;2023-04-30T01:52:16;18.48;;;11.50;;
75680;SDS011;64294;49.176;16.626;2023-04-30T01:54:48;18.00;;;11.52;;
75680;SDS011;64294;49.176;16.626;2023-04-30T01:57:20;16.35;;;11.68;;
75680;SDS011;64294;49.176;16.626;2023-04-30T01:59:49;19.90;;;13.10;;
75680;SDS011;64294;49.176;16.626;2023-04-30T02:02:15;18.88;;;13.05;;
75680;SDS011;64294;49.176;16.626;2023-04-30T02:04:41;20.13;;;12.40;;
75680;SDS011;64294;49.176;16.626;2023-04-30T02:07:06;19.25;;;12.38;;
75680;SDS011;64294;49.176;16.626;2023-04-30T02:09:32;19.10;;;12.60;;
75680;SDS011;64294;49.176;16.626;2023-04-30T02:11:57;18.52;;;12.50;;
75680;SDS011;64294;49.176;16.626;2023-04-30T02:14:24;19.48;;;12.30;;
75680;SDS011;64294;49.176;16.626;2023-04-30T02:16:49;17.70;;;11.88;;
75680;SDS011;64294;49.176;16.626;2023-04-30T02:19:15;18.38;;;12.23;;
75680;SDS011;64294;49.176;16.626;2023-04-30T02:21:40;20.85;;;13.98;;
75680;SDS011;64294;49.176;16.626;2023-04-30T02:24:06;24.05;;;15.52;;
75680;SDS011;64294;49.176;16.626;2023-04-30T02:26:31;20.48;;;13.02;;
75680;SDS011;64294;49.176;16.626;2023-04-30T02:28:57;17.88;;;12.07;;
75680;SDS011;64294;49.176;16.626;2023-04-30T02:31:22;19.90;;;12.52;;
75680;SDS011;64294;49.176;16.626;2023-04-30T02:33:47;17.70;;;11.65;;
75680;SDS011;64294;49.176;16.626;2023-04-30T02:36:13;15.38;;;11.02;;
75680;SDS011;64294;49.176;16.626;2023-04-30T02:38:38;16.63;;;11.27;;
75680;SDS011;64294;49.176;16.626;2023-04-30T02:41:03;18.98;;;12.05;;
75680;SDS011;64294;49.176;16.626;2023-04-30T02:43:29;20.85;;;11.27;;
75680;SDS011;64294;49.176;16.626;2023-04-30T02:45:54;17.30;;;10.88;;
75680;SDS011;64294;49.176;16.626;2023-04-30T02:48:20;18.27;;;11.20;;
75680;SDS011;64294;49.176;16.626;2023-04-30T02:50:46;19.13;;;11.40;;
75680;SDS011;64294;49.176;16.626;2023-04-30T02:53:12;15.00;;;10.88;;
75680;SDS011;64294;49.176;16.626;2023-04-30T02:55:37;17.73;;;11.35;;
75680;SDS011;64294;49.176;16.626;2023-04-30T02:58:02;16.98;;;11.55;;
75680;SDS011;64294;49.176;16.626;2023-04-30T03:00:28;20.02;;;11.60;;
75680;SDS011;64294;49.176;16.626;2023-04-30T03:02:53;16.10;;;11.25;;
75680;SDS011;64294;49.176;16.626;2023-04-30T03:05:19;16.75;;;10.77;;
75680;SDS011;64294;49.176;16.626;2023-04-30T03:07:44;15.27;;;10.40;;
75680;SDS011;64294;49.176;16.626;2023-04-30T03:10:09;19.33;;;10.35;;
75680;SDS011;64294;49.176;16.626;2023-04-30T03:12:35;14.07;;;10.10;;
75680;SDS011;64294;49.176;16.626;2023-04-30T03:15:01;19.13;;;10.45;;
75680;SDS011;64294;49.176;16.626;2023-04-30T03:17:26;15.82;;;10.18;;
75680;SDS011;64294;49.176;16.626;2023-04-30T03:19:52;16.02;;;9.70;;
75680;SDS011;64294;49.176;16.626;2023-04-30T03:22:17;17.15;;;10.52;;
75680;SDS011;64294;49.176;16.626;2023-04-30T03:24:47;15.43;;;9.85;;
75680;SDS011;64294;49.176;16.626;2023-04-30T03:27:13;19.80;;;11.00;;
75680;SDS011;64294;49.176;16.626;2023-04-30T03:29:40;16.35;;;10.68;;
75680;SDS011;64294;49.176;16.626;2023-04-30T03:32:06;16.52;;;10.43;;
75680;SDS011;64294;49.176;16.626;2023-04-30T03:34:31;15.38;;;10.25;;
75680;SDS011;64294;49.176;16.626;2023-04-30T03:36:57;16.17;;;9.77;;
75680;SDS011;64294;49.176;16.626;2023-04-30T03:39:22;13.95;;;9.55;;
75680;SDS011;64294;49.176;16.626;2023-04-30T03:41:48;16.63;;;9.13;;
75680;SDS011;64294;49.176;16.626;2023-04-30T03:44:13;14.63;;;8.93;;
75680;SDS011;64294;49.176;16.626;2023-04-30T03:46:42;19.00;;;9.57;;
75680;SDS011;64294;49.176;16.626;2023-04-30T03:49:08;15.38;;;9.55;;
75680;SDS011;64294;49.176;16.626;2023-04-30T03:51:35;14.40;;;9.18;;
75680;SDS011;64294;49.176;16.626;2023-04-30T03:54:04;14.65;;;9.57;;
75680;SDS011;64294;49.176;16.626;2023-04-30T03:56:30;13.00;;;9.07;;
75680;SDS011;64294;49.176;16.626;2023-04-30T03:58:56;16.45;;;9.23;;
75680;SDS011;64294;49.176;16.626;2023-04-30T04:01:22;13.85;;;9.45;;
75680;SDS011;64294;49.176;16.626;2023-04-30T04:03:47;14.93;;;8.93;;
75680;SDS011;64294;49.176;16.626;2023-04-30T04:06:13;16.08;;;9.30;;
75680;SDS011;64294;49.176;16.626;2023-04-30T04:08:38;14.93;;;9.40;;
75680;SDS011;64294;49.176;16.626;2023-04-30T04:11:07;18.02;;;9.52;;
75680;SDS011;64294;49.176;16.626;2023-04-30T04:13:33;13.52;;;9.27;;
75680;SDS011;64294;49.176;16.626;2023-04-30T04:15:58;16.20;;;9.60;;
75680;SDS011;64294;49.176;16.626;2023-04-30T04:18:23;13.55;;;9.07;;
75680;SDS011;64294;49.176;16.626;2023-04-30T04:20:49;14.60;;;9.98;;
75680;SDS011;64294;49.176;16.626;2023-04-30T04:23:14;15.25;;;9.05;;
75680;SDS011;64294;49.176;16.626;2023-04-30T04:25:40;13.82;;;9.05;;
75680;SDS011;64294;49.176;16.626;2023-04-30T04:28:05;14.07;;;9.20;;
75680;SDS011;64294;49.176;16.626;2023-04-30T04:30:31;12.52;;;8.57;;
75680;SDS011;64294;49.176;16.626;2023-04-30T04:32:57;13.05;;;8.70;;
75680;SDS011;64294;49.176;16.626;2023-04-30T04:35:24;15.07;;;9.00;;
75680;SDS011;64294;49.176;16.626;2023-04-30T04:37:49;16.48;;;9.73;;
75680;SDS011;64294;49.176;16.626;2023-04-30T04:40:15;14.63;;;8.63;;
75680;SDS011;64294;49.176;16.626;2023-04-30T04:42:40;15.55;;;8.70;;
75680;SDS011;64294;49.176;16.626;2023-04-30T04:45:06;13.05;;;8.63;;
75680;SDS011;64294;49.176;16.626;2023-04-30T04:47:32;13.60;;;8.43;;
75680;SDS011;64294;49.176;16.626;2023-04-30T04:49:57;20.45;;;10.10;;
75680;SDS011;64294;49.176;16.626;2023-04-30T04:52:23;14.35;;;8.23;;
75680;SDS011;64294;49.176;16.626;2023-04-30T04:54:48;14.50;;;8.65;;
75680;SDS011;64294;49.176;16.626;2023-04-30T04:57:14;13.23;;;8.15;;
75680;SDS011;64294;49.176;16.626;2023-04-30T04:59:39;14.65;;;8.60;;
75680;SDS011;64294;49.176;16.626;2023-04-30T05:02:04;13.07;;;8.73;;
75680;SDS011;64294;49.176;16.626;2023-04-30T05:04:30;16.30;;;8.75;;
75680;SDS011;64294;49.176;16.626;2023-04-30T05:06:56;14.15;;;8.70;;
75680;SDS011;64294;49.176;16.626;2023-04-30T05:09:24;12.73;;;8.20;;
75680;SDS011;64294;49.176;16.626;2023-04-30T05:11:49;12.23;;;7.78;;
75680;SDS011;64294;49.176;16.626;2023-04-30T05:14:15;12.10;;;7.53;;
75680;SDS011;64294;49.176;16.626;2023-04-30T05:16:40;12.52;;;7.80;;
75680;SDS011;64294;49.176;16.626;2023-04-30T05:19:06;14.82;;;7.63;;
75680;SDS011;64294;49.176;16.626;2023-04-30T05:21:33;12.40;;;7.80;;
75680;SDS011;64294;49.176;16.626;2023-04-30T05:23:59;15.40;;;7.85;;
75680;SDS011;64294;49.176;16.626;2023-04-30T05:26:25;11.90;;;8.18;;
75680;SDS011;64294;49.176;16.626;2023-04-30T05:28:50;14.20;;;8.25;;
75680;SDS011;64294;49.176;16.626;2023-04-30T05:31:16;10.32;;;7.35;;
75680;SDS011;64294;49.176;16.626;2023-04-30T05:33:42;14.52;;;8.05;;
75680;SDS011;64294;49.176;16.626;2023-04-30T05:36:08;11.18;;;7.60;;
75680;SDS011;64294;49.176;16.626;2023-04-30T05:38:34;15.93;;;7.90;;
75680;SDS011;64294;49.176;16.626;2023-04-30T05:41:00;11.82;;;8.05;;
75680;SDS011;64294;49.176;16.626;2023-04-30T05:43:26;13.60;;;7.38;;
75680;SDS011;64294;49.176;16.626;2023-04-30T05:45:51;11.35;;;7.70;;
75680;SDS011;64294;49.176;16.626;2023-04-30T05:48:17;14.98;;;7.95;;
75680;SDS011;64294;49.176;16.626;2023-04-30T05:50:42;13.80;;;6.93;;
75680;SDS011;64294;49.176;16.626;2023-04-30T05:53:08;11.40;;;7.07;;
75680;SDS011;64294;49.176;16.626;2023-04-30T05:55:33;11.05;;;7.65;;
75680;SDS011;64294;49.176;16.626;2023-04-30T05:57:59;12.85;;;7.38;;
75680;SDS011;64294;49.176;16.626;2023-04-30T06:00:24;14.45;;;8.05;;
75680;SDS011;64294;49.176;16.626;2023-04-30T06:02:50;11.23;;;7.43;;
75680;SDS011;64294;49.176;16.626;2023-04-30T06:05:15;10.20;;;6.72;;
75680;SDS011;64294;49.176;16.626;2023-04-30T06:07:40;12.98;;;7.45;;
75680;SDS011;64294;49.176;16.626;2023-04-30T06:10:06;13.57;;;7.60;;
75680;SDS011;64294;49.176;16.626;2023-04-30T06:12:33;11.63;;;7.40;;
75680;SDS011;64294;49.176;16.626;2023-04-30T06:14:58;15.52;;;8.10;;
75680;SDS011;64294;49.176;16.626;2023-04-30T06:17:24;14.45;;;8.35;;
75680;SDS011;64294;49.176;16.626;2023-04-30T06:19:49;13.18;;;7.63;;
75680;SDS011;64294;49.176;16.626;2023-04-30T06:22:15;11.63;;;7.15;;
75680;SDS011;64294;49.176;16.626;2023-04-30T06:24:40;11.07;;;7.18;;
75680;SDS011;64294;49.176;16.626;2023-04-30T06:27:06;12.38;;;7.53;;
75680;SDS011;64294;49.176;16.626;2023-04-30T06:29:31;12.80;;;7.45;;
75680;SDS011;64294;49.176;16.626;2023-04-30T06:31:57;10.48;;;6.78;;
75680;SDS011;64294;49.176;16.626;2023-04-30T06:34:22;14.40;;;9.15;;
75680;SDS011;64294;49.176;16.626;2023-04-30T06:36:47;13.13;;;6.90;;
75680;SDS011;64294;49.176;16.626;2023-04-30T06:39:14;13.65;;;6.90;;
75680;SDS011;64294;49.176;16.626;2023-04-30T06:41:40;10.95;;;6.75;;
75680;SDS011;64294;49.176;16.626;2023-04-30T06:44:05;10.02;;;6.68;;
75680;SDS011;64294;49.176;16.626;2023-04-30T06:46:32;14.10;;;8.30;;
75680;SDS011;64294;49.176;16.626;2023-04-30T06:48:58;13.20;;;8.00;;
75680;SDS011;64294;49.176;16.626;2023-04-30T06:51:24;11.23;;;7.22;;
75680;SDS011;64294;49.176;16.626;2023-04-30T06:53:50;13.43;;;8.95;;
75680;SDS011;64294;49.176;16.626;2023-04-30T06:56:16;13.43;;;8.23;;
75680;SDS011;64294;49.176;16.626;2023-04-30T06:58:41;15.90;;;7.63;;
75680;SDS011;64294;49.176;16.626;2023-04-30T07:01:06;12.82;;;7.13;;
75680;SDS011;64294;49.176;16.626;2023-04-30T07:03:32;12.85;;;7.55;;
75680;SDS011;64294;49.176;16.626;2023-04-30T07:05:59;12.57;;;8.05;;
75680;SDS011;64294;49.176;16.626;2023-04-30T07:08:24;10.43;;;7.15;;
75680;SDS011;64294;49.176;16.626;2023-04-30T07:10:49;12.23;;;6.95;;
75680;SDS011;64294;49.176;16.626;2023-04-30T07:13:15;11.93;;;6.75;;
75680;SDS011;64294;49.176;16.626;2023-04-30T07:15:41;11.27;;;7.25;;
75680;SDS011;64294;49.176;16.626;2023-04-30T07:18:06;13.02;;;6.90;;
75680;SDS011;64294;49.176;16.626;2023-04-30T07:20:32;13.52;;;7.07;;
75680;SDS011;64294;49.176;16.626;2023-04-30T07:22:58;10.65;;;6.53;;
75680;SDS011;64294;49.176;16.626;2023-04-30T07:25:23;9.88;;;6.22;;
75680;SDS011;64294;49.176;16.626;2023-04-30T07:27:50;11.93;;;7.07;;
75680;SDS011;64294;49.176;16.626;2023-04-30T07:30:16;10.88;;;6.70;;
75680;SDS011;64294;49.176;16.626;2023-04-30T07:32:42;8.63;;;5.80;;
75680;SDS011;64294;49.176;16.626;2023-04-30T07:35:08;11.93;;;6.00;;
75680;SDS011;64294;49.176;16.626;2023-04-30T07:37:34;8.82;;;5.90;;
75680;SDS011;64294;49.176;16.626;2023-04-30T07:39:59;10.38;;;6.18;;
75680;SDS011;64294;49.176;16.626;2023-04-30T07:42:24;9.63;;;6.13;;
75680;SDS011;64294;49.176;16.626;2023-04-30T07:44:51;9.90;;;6.00;;
75680;SDS011;64294;49.176;16.626;2023-04-30T07:47:17;8.73;;;6.07;;
75680;SDS011;64294;49.176;16.626;2023-04-30T07:49:43;10.10;;;5.88;;
75680;SDS011;64294;49.176;16.626;2023-04-30T07:52:10;25.63;;;14.48;;
75680;SDS011;64294;49.176;16.626;2023-04-30T07:54:36;12.43;;;7.28;;
75680;SDS011;64294;49.176;16.626;2023-04-30T07:57:03;9.20;;;5.32;;
75680;SDS011;64294;49.176;16.626;2023-04-30T07:59:29;9.35;;;5.72;;
75680;SDS011;64294;49.176;16.626;2023-04-30T08:01:55;10.30;;;5.60;;
75680;SDS011;64294;49.176;16.626;2023-04-30T08:04:20;8.27;;;4.95;;
75680;SDS011;64294;49.176;16.626;2023-04-30T08:06:45;10.15;;;5.45;;
75680;SDS011;64294;49.176;16.626;2023-04-30T08:09:11;7.13;;;5.00;;
75680;SDS011;64294;49.176;16.626;2023-04-30T08:11:36;8.55;;;4.82;;
75680;SDS011;64294;49.176;16.626;2023-04-30T08:14:02;7.72;;;4.57;;
75680;SDS011;64294;49.176;16.626;2023-04-30T08:16:27;7.38;;;4.32;;
75680;SDS011;64294;49.176;16.626;2023-04-30T08:18:52;11.23;;;5.18;;
75680;SDS011;64294;49.176;16.626;2023-04-30T08:21:18;7.32;;;4.07;;
75680;SDS011;64294;49.176;16.626;2023-04-30T08:23:43;6.75;;;4.20;;
75680;SDS011;64294;49.176;16.626;2023-04-30T08:26:09;6.72;;;4.18;;
75680;SDS011;64294;49.176;16.626;2023-04-30T08:28:35;6.93;;;4.15;;
75680;SDS011;64294;49.176;16.626;2023-04-30T08:31:00;7.13;;;4.03;;
75680;SDS011;64294;49.176;16.626;2023-04-30T08:33:26;8.13;;;4.15;;
75680;SDS011;64294;49.176;16.626;2023-04-30T08:35:51;16.88;;;10.93;;
75680;SDS011;64294;49.176;16.626;2023-04-30T08:38:17;7.88;;;5.00;;
75680;SDS011;64294;49.176;16.626;2023-04-30T08:40:44;5.90;;;3.90;;
75680;SDS011;64294;49.176;16.626;2023-04-30T08:45:42;5.55;;;3.60;;
75680;SDS011;64294;49.176;16.626;2023-04-30T08:48:09;6.32;;;3.85;;
75680;SDS011;64294;49.176;16.626;2023-04-30T08:50:36;5.57;;;3.90;;
75680;SDS011;64294;49.176;16.626;2023-04-30T08:53:01;6.97;;;4.30;;
75680;SDS011;64294;49.176;16.626;2023-04-30T08:55:27;4.78;;;3.95;;
75680;SDS011;64294;49.176;16.626;2023-04-30T08:57:52;7.03;;;4.00;;
75680;SDS011;64294;49.176;16.626;2023-04-30T09:00:18;6.13;;;4.07;;
75680;SDS011;64294;49.176;16.626;2023-04-30T09:02:44;6.75;;;4.20;;
75680;SDS011;64294;49.176;16.626;2023-04-30T09:05:12;6.50;;;4.55;;
75680;SDS011;64294;49.176;16.626;2023-04-30T09:07:42;6.13;;;4.55;;
75680;SDS011;64294;49.176;16.626;2023-04-30T09:10:16;6.88;;;4.63;;
75680;SDS011;64294;49.176;16.626;2023-04-30T09:12:44;9.00;;;4.40;;
75680;SDS011;64294;49.176;16.626;2023-04-30T09:15:23;5.82;;;4.20;;
75680;SDS011;64294;49.176;16.626;2023-04-30T09:17:48;6.10;;;4.18;;
75680;SDS011;64294;49.176;16.626;2023-04-30T09:20:13;7.18;;;4.32;;
75680;SDS011;64294;49.176;16.626;2023-04-30T09:22:39;6.22;;;4.07;;
75680;SDS011;64294;49.176;16.626;2023-04-30T09:25:06;8.18;;;4.53;;
75680;SDS011;64294;49.176;16.626;2023-04-30T09:27:33;7.03;;;4.50;;
75680;SDS011;64294;49.176;16.626;2023-04-30T09:29:58;8.82;;;5.00;;
75680;SDS011;64294;49.176;16.626;2023-04-30T09:32:25;7.60;;;4.80;;
75680;SDS011;64294;49.176;16.626;2023-04-30T09:34:50;7.30;;;4.57;;
75680;SDS011;64294;49.176;16.626;2023-04-30T09:37:16;8.90;;;4.40;;
75680;SDS011;64294;49.176;16.626;2023-04-30T09:39:45;8.73;;;4.55;;
75680;SDS011;64294;49.176;16.626;2023-04-30T09:42:20;7.22;;;4.10;;
75680;SDS011;64294;49.176;16.626;2023-04-30T09:44:46;6.70;;;4.07;;
75680;SDS011;64294;49.176;16.626;2023-04-30T09:47:16;10.10;;;4.32;;
75680;SDS011;64294;49.176;16.626;2023-04-30T09:49:45;7.03;;;4.00;;
75680;SDS011;64294;49.176;16.626;2023-04-30T09:52:13;6.53;;;3.85;;
75680;SDS011;64294;49.176;16.626;2023-04-30T09:54:39;8.90;;;4.70;;
75680;SDS011;64294;49.176;16.626;2023-04-30T09:57:08;6.20;;;4.22;;
75680;SDS011;64294;49.176;16.626;2023-04-30T09:59:35;7.78;;;4.25;;
75680;SDS011;64294;49.176;16.626;2023-04-30T10:02:04;7.43;;;3.80;;
75680;SDS011;64294;49.176;16.626;2023-04-30T10:04:37;6.32;;;4.07;;
75680;SDS011;64294;49.176;16.626;2023-04-30T10:07:08;8.27;;;4.30;;
75680;SDS011;64294;49.176;16.626;2023-04-30T10:09:40;8.05;;;4.63;;
75680;SDS011;64294;49.176;16.626;2023-04-30T10:12:13;5.43;;;3.53;;
75680;SDS011;64294;49.176;16.626;2023-04-30T10:14:49;5.95;;;3.60;;
75680;SDS011;64294;49.176;16.626;2023-04-30T10:17:19;7.25;;;3.80;;
75680;SDS011;64294;49.176;16.626;2023-04-30T10:19:51;6.20;;;3.72;;
75680;SDS011;64294;49.176;16.626;2023-04-30T10:22:22;6.47;;;3.80;;
75680;SDS011;64294;49.176;16.626;2023-04-30T10:24:48;5.65;;;3.80;;
75680;SDS011;64294;49.176;16.626;2023-04-30T10:27:14;5.57;;;3.60;;
75680;SDS011;64294;49.176;16.626;2023-04-30T10:29:40;4.88;;;3.50;;
75680;SDS011;64294;49.176;16.626;2023-04-30T10:32:06;4.47;;;3.63;;
75680;SDS011;64294;49.176;16.626;2023-04-30T10:37:14;8.05;;;4.45;;
75680;SDS011;64294;49.176;16.626;2023-04-30T10:39:46;5.88;;;3.72;;
75680;SDS011;64294;49.176;16.626;2023-04-30T10:42:13;6.75;;;3.63;;
75680;SDS011;64294;49.176;16.626;2023-04-30T10:44:39;5.93;;;4.05;;
75680;SDS011;64294;49.176;16.626;2023-04-30T10:47:05;6.72;;;4.35;;
75680;SDS011;64294;49.176;16.626;2023-04-30T10:49:31;7.95;;;3.75;;
75680;SDS011;64294;49.176;16.626;2023-04-30T10:52:00;8.60;;;4.45;;
75680;SDS011;64294;49.176;16.626;2023-04-30T10:54:31;7.95;;;4.43;;
75680;SDS011;64294;49.176;16.626;2023-04-30T10:57:11;7.10;;;4.10;;
75680;SDS011;64294;49.176;16.626;2023-04-30T10:59:41;6.75;;;3.60;;
75680;SDS011;64294;49.176;16.626;2023-04-30T11:02:27;6.07;;;3.42;;
75680;SDS011;64294;49.176;16.626;2023-04-30T11:05:11;8.40;;;3.60;;
75680;SDS011;64294;49.176;16.626;2023-04-30T11:07:46;5.63;;;3.45;;
75680;SDS011;64294;49.176;16.626;2023-04-30T11:10:13;5.68;;;3.72;;
75680;SDS011;64294;49.176;16.626;2023-04-30T11:12:49;6.68;;;3.60;;
75680;SDS011;64294;49.176;16.626;2023-04-30T11:15:19;4.80;;;3.88;;
75680;SDS011;64294;49.176;16.626;2023-04-30T11:17:47;4.90;;;3.40;;
75680;SDS011;64294;49.176;16.626;2023-04-30T11:20:18;5.60;;;3.97;;
75680;SDS011;64294;49.176;16.626;2023-04-30T11:22:45;5.47;;;3.72;;
75680;SDS011;64294;49.176;16.626;2023-04-30T11:25:11;7.03;;;3.80;;
75680;SDS011;64294;49.176;16.626;2023-04-30T11:27:40;6.25;;;4.05;;
75680;SDS011;64294;49.176;16.626;2023-04-30T11:30:12;5.40;;;3.50;;
75680;SDS011;64294;49.176;16.626;2023-04-30T11:32:40;5.85;;;3.70;;
75680;SDS011;64294;49.176;16.626;2023-04-30T11:35:08;5.78;;;3.53;;
75680;SDS011;64294;49.176;16.626;2023-04-30T11:40:04;5.45;;;3.30;;
75680;SDS011;64294;49.176;16.626;2023-04-30T11:42:32;7.57;;;3.95;;
75680;SDS011;64294;49.176;16.626;2023-04-30T11:45:17;6.78;;;3.58;;
75680;SDS011;64294;49.176;16.626;2023-04-30T11:47:51;6.18;;;3.13;;
75680;SDS011;64294;49.176;16.626;2023-04-30T11:50:19;5.38;;;3.20;;
75680;SDS011;64294;49.176;16.626;2023-04-30T11:52:53;4.93;;;2.90;;
75680;SDS011;64294;49.176;16.626;2023-04-30T11:55:20;4.35;;;2.65;;
75680;SDS011;64294;49.176;16.626;2023-04-30T11:57:48;6.30;;;3.28;;
75680;SDS011;64294;49.176;16.626;2023-04-30T12:00:18;6.65;;;3.50;;
75680;SDS011;64294;49.176;16.626;2023-04-30T12:02:47;5.70;;;3.20;;
75680;SDS011;64294;49.176;16.626;2023-04-30T12:05:14;5.82;;;3.00;;
75680;SDS011;64294;49.176;16.626;2023-04-30T12:07:54;6.00;;;3.60;;
75680;SDS011;64294;49.176;16.626;2023-04-30T12:10:33;6.88;;;3.53;;
75680;SDS011;64294;49.176;16.626;2023-04-30T12:13:00;5.63;;;3.38;;
75680;SDS011;64294;49.176;16.626;2023-04-30T12:15:26;5.28;;;3.28;;
75680;SDS011;64294;49.176;16.626;2023-04-30T12:17:56;5.05;;;3.20;;
75680;SDS011;64294;49.176;16.626;2023-04-30T12:20:26;5.80;;;3.30;;
75680;SDS011;64294;49.176;16.626;2023-04-30T12:22:53;5.85;;;3.33;;
75680;SDS011;64294;49.176;16.626;2023-04-30T12:25:19;4.40;;;2.78;;
75680;SDS011;64294;49.176;16.626;2023-04-30T12:27:46;5.35;;;3.30;;
75680;SDS011;64294;49.176;16.626;2023-04-30T12:30:14;6.30;;;2.88;;
75680;SDS011;64294;49.176;16.626;2023-04-30T12:32:43;4.78;;;3.00;;
75680;SDS011;64294;49.176;16.626;2023-04-30T12:35:13;5.15;;;3.10;;
75680;SDS011;64294;49.176;16.626;2023-04-30T12:37:41;5.57;;;2.97;;
75680;SDS011;64294;49.176;16.626;2023-04-30T12:40:11;4.93;;;3.08;;
75680;SDS011;64294;49.176;16.626;2023-04-30T12:42:38;8.48;;;3.08;;
75680;SDS011;64294;49.176;16.626;2023-04-30T12:45:03;5.05;;;3.20;;
75680;SDS011;64294;49.176;16.626;2023-04-30T12:47:29;6.13;;;3.10;;
75680;SDS011;64294;49.176;16.626;2023-04-30T12:49:55;6.32;;;3.60;;
75680;SDS011;64294;49.176;16.626;2023-04-30T12:52:24;5.05;;;3.42;;
75680;SDS011;64294;49.176;16.626;2023-04-30T12:54:50;5.03;;;3.33;;
75680;SDS011;64294;49.176;16.626;2023-04-30T12:57:16;4.65;;;3.30;;
75680;SDS011;64294;49.176;16.626;2023-04-30T13:02:16;6.57;;;3.25;;
75680;SDS011;64294;49.176;16.626;2023-04-30T13:04:42;6.38;;;3.22;;
75680;SDS011;64294;49.176;16.626;2023-04-30T13:07:08;3.95;;;3.22;;
75680;SDS011;64294;49.176;16.626;2023-04-30T13:09:35;5.55;;;3.40;;
75680;SDS011;64294;49.176;16.626;2023-04-30T13:12:02;4.53;;;3.35;;
75680;SDS011;64294;49.176;16.626;2023-04-30T13:14:28;4.72;;;3.13;;
75680;SDS011;64294;49.176;16.626;2023-04-30T13:16:55;3.97;;;3.28;;
75680;SDS011;64294;49.176;16.626;2023-04-30T13:19:20;4.63;;;3.38;;
75680;SDS011;64294;49.176;16.626;2023-04-30T13:21:46;7.25;;;3.67;;
75680;SDS011;64294;49.176;16.626;2023-04-30T13:24:11;7.90;;;3.70;;
75680;SDS011;64294;49.176;16.626;2023-04-30T13:26:37;4.53;;;3.20;;
75680;SDS011;64294;49.176;16.626;2023-04-30T13:29:03;6.57;;;3.60;;
75680;SDS011;64294;49.176;16.626;2023-04-30T13:31:29;8.68;;;4.10;;
75680;SDS011;64294;49.176;16.626;2023-04-30T13:33:55;9.43;;;4.13;;
75680;SDS011;64294;49.176;16.626;2023-04-30T13:36:20;7.65;;;3.78;;
75680;SDS011;64294;49.176;16.626;2023-04-30T13:38:46;5.57;;;3.72;;
75680;SDS011;64294;49.176;16.626;2023-04-30T13:41:11;5.53;;;3.42;;
75680;SDS011;64294;49.176;16.626;2023-04-30T13:43:37;6.90;;;3.22;;
75680;SDS011;64294;49.176;16.626;2023-04-30T13:46:06;5.50;;;3.05;;
75680;SDS011;64294;49.176;16.626;2023-04-30T13:48:32;7.55;;;4.10;;
75680;SDS011;64294;49.176;16.626;2023-04-30T13:50:58;17.05;;;7.78;;
75680;SDS011;64294;49.176;16.626;2023-04-30T13:53:24;13.35;;;6.20;;
75680;SDS011;64294;49.176;16.626;2023-04-30T13:55:50;7.40;;;4.07;;
75680;SDS011;64294;49.176;16.626;2023-04-30T13:58:15;5.22;;;3.17;;
75680;SDS011;64294;49.176;16.626;2023-04-30T14:00:41;4.68;;;3.08;;
75680;SDS011;64294;49.176;16.626;2023-04-30T14:03:07;11.48;;;6.60;;
75680;SDS011;64294;49.176;16.626;2023-04-30T14:05:32;9.88;;;5.93;;
75680;SDS011;64294;49.176;16.626;2023-04-30T14:07:58;7.43;;;5.72;;
75680;SDS011;64294;49.176;16.626;2023-04-30T14:10:23;7.57;;;4.85;;
75680;SDS011;64294;49.176;16.626;2023-04-30T14:12:49;6.13;;;4.03;;
75680;SDS011;64294;49.176;16.626;2023-04-30T14:15:14;6.13;;;3.47;;
75680;SDS011;64294;49.176;16.626;2023-04-30T14:17:40;5.15;;;3.40;;
75680;SDS011;64294;49.176;16.626;2023-04-30T14:20:05;5.53;;;3.40;;
75680;SDS011;64294;49.176;16.626;2023-04-30T14:22:32;5.75;;;3.30;;
75680;SDS011;64294;49.176;16.626;2023-04-30T14:24:59;5.47;;;3.10;;
75680;SDS011;64294;49.176;16.626;2023-04-30T14:27:25;5.25;;;3.30;;
75680;SDS011;64294;49.176;16.626;2023-04-30T14:29:50;5.13;;;3.00;;
75680;SDS011;64294;49.176;16.626;2023-04-30T14:32:16;6.63;;;3.13;;
75680;SDS011;64294;49.176;16.626;2023-04-30T14:34:41;5.05;;;3.05;;
75680;SDS011;64294;49.176;16.626;2023-04-30T14:37:07;4.15;;;3.20;;
75680;SDS011;64294;49.176;16.626;2023-04-30T14:39:33;7.93;;;3.92;;
75680;SDS011;64294;49.176;16.626;2023-04-30T14:41:58;7.50;;;3.55;;
75680;SDS011;64294;49.176;16.626;2023-04-30T14:44:25;4.38;;;2.97;;
75680;SDS011;64294;49.176;16.626;2023-04-30T14:46:51;4.75;;;3.13;;
75680;SDS011;64294;49.176;16.626;2023-04-30T14:49:17;5.60;;;3.20;;
75680;SDS011;64294;49.176;16.626;2023-04-30T14:51:42;5.40;;;3.30;;